sensor_id;sensor_type;location;lat;lon;timestamp;temperature;humidity
2158;DHT22;41972;48.774;9.282;2022-08-06T00:01:48;20.20;99.90
2158;DHT22;41972;48.774;9.282;2022-08-06T00:04:13;20.00;99.90
2158;DHT22;41972;48.774;9.282;2022-08-06T00:06:39;20.00;99.90
2158;DHT22;41972;48.774;9.282;2022-08-06T00:09:05;20.00;99.90
2158;DHT22;41972;48.774;9.282;2022-08-06T00:11:30;20.00;99.90
2158;DHT22;41972;48.774;9.282;2022-08-06T00:13:56;19.90;99.90
2158;DHT22;41972;48.774;9.282;2022-08-06T00:16:21;19.90;99.90
2158;DHT22;41972;48.774;9.282;2022-08-06T00:18:47;19.90;99.90
2158;DHT22;41972;48.774;9.282;2022-08-06T00:21:12;19.90;99.90
2158;DHT22;41972;48.774;9.282;2022-08-06T00:23:38;19.80;99.90
2158;DHT22;41972;48.774;9.282;2022-08-06T00:26:04;19.90;99.90
2158;DHT22;41972;48.774;9.282;2022-08-06T00:28:29;19.80;99.90
2158;DHT22;41972;48.774;9.282;2022-08-06T00:30:55;19.90;99.90
2158;DHT22;41972;48.774;9.282;2022-08-06T00:33:20;19.90;99.90
2158;DHT22;41972;48.774;9.282;2022-08-06T00:35:46;19.80;99.90
2158;DHT22;41972;48.774;9.282;2022-08-06T00:38:12;19.70;99.90
2158;DHT22;41972;48.774;9.282;2022-08-06T00:40:38;19.60;99.90
2158;DHT22;41972;48.774;9.282;2022-08-06T00:43:04;19.70;99.90
2158;DHT22;41972;48.774;9.282;2022-08-06T00:45:31;19.60;99.90
2158;DHT22;41972;48.774;9.282;2022-08-06T00:47:57;19.60;99.90
2158;DHT22;41972;48.774;9.282;2022-08-06T00:50:22;19.70;99.90
2158;DHT22;41972;48.774;9.282;2022-08-06T00:52:48;19.50;99.90
2158;DHT22;41972;48.774;9.282;2022-08-06T00:55:14;19.60;99.90
2158;DHT22;41972;48.774;9.282;2022-08-06T00:57:39;19.70;99.90
2158;DHT22;41972;48.774;9.282;2022-08-06T01:00:07;19.60;99.90
2158;DHT22;41972;48.774;9.282;2022-08-06T01:02:33;19.60;99.90
2158;DHT22;41972;48.774;9.282;2022-08-06T01:04:59;19.50;99.90
2158;DHT22;41972;48.774;9.282;2022-08-06T01:07:25;19.60;99.90
2158;DHT22;41972;48.774;9.282;2022-08-06T01:09:50;19.60;99.90
2158;DHT22;41972;48.774;9.282;2022-08-06T01:12:16;19.60;99.90
2158;DHT22;41972;48.774;9.282;2022-08-06T01:14:42;19.50;99.90
2158;DHT22;41972;48.774;9.282;2022-08-06T01:28:58;19.60;99.90
2158;DHT22;41972;48.774;9.282;2022-08-06T01:31:41;19.60;99.90
2158;DHT22;41972;48.774;9.282;2022-08-06T01:34:13;19.60;99.90
2158;DHT22;41972;48.774;9.282;2022-08-06T01:36:49;19.50;99.90
2158;DHT22;41972;48.774;9.282;2022-08-06T01:39:18;19.30;99.90
2158;DHT22;41972;48.774;9.282;2022-08-06T01:41:48;19.40;99.90
2158;DHT22;41972;48.774;9.282;2022-08-06T01:44:19;19.20;99.90
2158;DHT22;41972;48.774;9.282;2022-08-06T01:46:51;19.10;99.90
2158;DHT22;41972;48.774;9.282;2022-08-06T01:49:22;19.20;99.90
2158;DHT22;41972;48.774;9.282;2022-08-06T01:51:52;19.20;99.90
2158;DHT22;41972;48.774;9.282;2022-08-06T01:54:18;19.30;99.90
2158;DHT22;41972;48.774;9.282;2022-08-06T01:56:49;19.30;99.90
2158;DHT22;41972;48.774;9.282;2022-08-06T01:59:17;19.30;99.90
2158;DHT22;41972;48.774;9.282;2022-08-06T02:01:47;19.20;99.90
2158;DHT22;41972;48.774;9.282;2022-08-06T02:04:16;19.20;99.90
2158;DHT22;41972;48.774;9.282;2022-08-06T02:06:45;19.20;99.90
2158;DHT22;41972;48.774;9.282;2022-08-06T02:09:16;19.10;99.90
2158;DHT22;41972;48.774;9.282;2022-08-06T02:11:47;19.00;99.90
2158;DHT22;41972;48.774;9.282;2022-08-06T02:14:14;19.00;99.90
2158;DHT22;41972;48.774;9.282;2022-08-06T02:16:42;19.00;99.90
2158;DHT22;41972;48.774;9.282;2022-08-06T02:19:10;18.80;99.90
2158;DHT22;41972;48.774;9.282;2022-08-06T02:21:38;18.90;99.90
2158;DHT22;41972;48.774;9.282;2022-08-06T02:24:07;18.80;99.90
2158;DHT22;41972;48.774;9.282;2022-08-06T02:26:35;18.90;99.90
2158;DHT22;41972;48.774;9.282;2022-08-06T02:29:04;18.90;99.90
2158;DHT22;41972;48.774;9.282;2022-08-06T02:31:31;18.90;99.90
2158;DHT22;41972;48.774;9.282;2022-08-06T02:33:57;18.80;99.90
2158;DHT22;41972;48.774;9.282;2022-08-06T02:37:17;18.80;99.90
2158;DHT22;41972;48.774;9.282;2022-08-06T02:39:26;18.80;99.90
2158;DHT22;41972;48.774;9.282;2022-08-06T02:47:57;18.80;99.90
2158;DHT22;41972;48.774;9.282;2022-08-06T02:50:37;18.50;99.90
2158;DHT22;41972;48.774;9.282;2022-08-06T02:53:06;18.60;99.90
2158;DHT22;41972;48.774;9.282;2022-08-06T02:55:37;18.60;99.90
2158;DHT22;41972;48.774;9.282;2022-08-06T02:58:32;18.60;99.90
2158;DHT22;41972;48.774;9.282;2022-08-06T03:00:59;18.70;99.90
2158;DHT22;41972;48.774;9.282;2022-08-06T03:03:27;18.70;99.90
2158;DHT22;41972;48.774;9.282;2022-08-06T03:05:55;18.60;99.90
2158;DHT22;41972;48.774;9.282;2022-08-06T03:08:23;18.70;99.90
2158;DHT22;41972;48.774;9.282;2022-08-06T03:10:52;18.70;99.90
2158;DHT22;41972;48.774;9.282;2022-08-06T03:13:18;18.60;99.90
2158;DHT22;41972;48.774;9.282;2022-08-06T03:15:47;18.50;99.90
2158;DHT22;41972;48.774;9.282;2022-08-06T03:18:13;18.50;99.90
2158;DHT22;41972;48.774;9.282;2022-08-06T03:20:41;18.60;99.90
2158;DHT22;41972;48.774;9.282;2022-08-06T03:23:08;18.60;99.90
2158;DHT22;41972;48.774;9.282;2022-08-06T03:25:38;18.50;99.90
2158;DHT22;41972;48.774;9.282;2022-08-06T03:28:04;18.50;99.90
2158;DHT22;41972;48.774;9.282;2022-08-06T03:30:31;18.50;99.90
2158;DHT22;41972;48.774;9.282;2022-08-06T03:33:03;18.40;99.90
2158;DHT22;41972;48.774;9.282;2022-08-06T03:35:29;18.50;99.90
2158;DHT22;41972;48.774;9.282;2022-08-06T03:37:56;18.50;99.90
2158;DHT22;41972;48.774;9.282;2022-08-06T03:40:23;18.50;99.90
2158;DHT22;41972;48.774;9.282;2022-08-06T03:42:50;18.50;99.90
2158;DHT22;41972;48.774;9.282;2022-08-06T03:45:15;18.40;99.90
2158;DHT22;41972;48.774;9.282;2022-08-06T03:47:43;18.50;99.90
2158;DHT22;41972;48.774;9.282;2022-08-06T03:53:03;18.50;99.90
2158;DHT22;41972;48.774;9.282;2022-08-06T03:55:32;18.30;99.90
2158;DHT22;41972;48.774;9.282;2022-08-06T03:58:02;18.40;99.90
2158;DHT22;41972;48.774;9.282;2022-08-06T04:00:33;18.30;99.90
2158;DHT22;41972;48.774;9.282;2022-08-06T04:03:00;18.20;99.90
2158;DHT22;41972;48.774;9.282;2022-08-06T04:05:29;18.10;99.90
2158;DHT22;41972;48.774;9.282;2022-08-06T04:08:03;18.20;99.90
2158;DHT22;41972;48.774;9.282;2022-08-06T04:10:36;18.10;99.90
2158;DHT22;41972;48.774;9.282;2022-08-06T04:13:07;18.10;99.90
2158;DHT22;41972;48.774;9.282;2022-08-06T04:15:35;18.10;99.90
2158;DHT22;41972;48.774;9.282;2022-08-06T04:18:03;18.00;99.90
2158;DHT22;41972;48.774;9.282;2022-08-06T04:20:30;18.00;99.90
2158;DHT22;41972;48.774;9.282;2022-08-06T04:22:57;18.00;99.90
2158;DHT22;41972;48.774;9.282;2022-08-06T04:25:23;18.00;99.90
2158;DHT22;41972;48.774;9.282;2022-08-06T04:27:50;18.10;99.90
2158;DHT22;41972;48.774;9.282;2022-08-06T04:30:16;18.10;99.90
2158;DHT22;41972;48.774;9.282;2022-08-06T04:32:43;18.10;99.90
2158;DHT22;41972;48.774;9.282;2022-08-06T04:35:11;18.10;99.90
2158;DHT22;41972;48.774;9.282;2022-08-06T04:37:36;18.10;99.90
2158;DHT22;41972;48.774;9.282;2022-08-06T04:40:03;17.90;99.90
2158;DHT22;41972;48.774;9.282;2022-08-06T04:42:30;18.10;99.90
2158;DHT22;41972;48.774;9.282;2022-08-06T04:44:56;18.20;99.90
2158;DHT22;41972;48.774;9.282;2022-08-06T04:47:23;18.20;99.90
2158;DHT22;41972;48.774;9.282;2022-08-06T04:49:49;18.00;99.90
2158;DHT22;41972;48.774;9.282;2022-08-06T04:52:25;18.10;99.90
2158;DHT22;41972;48.774;9.282;2022-08-06T04:54:51;18.20;99.90
2158;DHT22;41972;48.774;9.282;2022-08-06T04:57:17;18.20;99.90
2158;DHT22;41972;48.774;9.282;2022-08-06T04:59:43;18.40;99.90
2158;DHT22;41972;48.774;9.282;2022-08-06T05:02:09;18.20;99.90
2158;DHT22;41972;48.774;9.282;2022-08-06T05:04:35;18.20;99.90
2158;DHT22;41972;48.774;9.282;2022-08-06T05:09:28;18.10;99.90
2158;DHT22;41972;48.774;9.282;2022-08-06T05:11:59;17.90;99.90
2158;DHT22;41972;48.774;9.282;2022-08-06T05:14:39;17.90;99.90
2158;DHT22;41972;48.774;9.282;2022-08-06T05:17:07;18.00;99.90
2158;DHT22;41972;48.774;9.282;2022-08-06T05:19:55;18.00;99.90
2158;DHT22;41972;48.774;9.282;2022-08-06T05:22:23;18.00;99.90
2158;DHT22;41972;48.774;9.282;2022-08-06T05:24:49;18.00;99.90
2158;DHT22;41972;48.774;9.282;2022-08-06T05:27:15;18.10;99.90
2158;DHT22;41972;48.774;9.282;2022-08-06T05:29:40;18.00;99.90
2158;DHT22;41972;48.774;9.282;2022-08-06T05:32:06;18.10;99.90
2158;DHT22;41972;48.774;9.282;2022-08-06T05:34:33;18.30;99.90
2158;DHT22;41972;48.774;9.282;2022-08-06T05:36:58;18.20;99.90
2158;DHT22;41972;48.774;9.282;2022-08-06T05:39:24;18.40;99.90
2158;DHT22;41972;48.774;9.282;2022-08-06T05:41:49;18.60;99.90
2158;DHT22;41972;48.774;9.282;2022-08-06T05:44:15;18.80;99.90
2158;DHT22;41972;48.774;9.282;2022-08-06T05:46:45;18.70;99.90
2158;DHT22;41972;48.774;9.282;2022-08-06T05:49:28;18.50;99.90
2158;DHT22;41972;48.774;9.282;2022-08-06T05:52:09;18.60;99.90
2158;DHT22;41972;48.774;9.282;2022-08-06T05:54:58;18.40;99.90
2158;DHT22;41972;48.774;9.282;2022-08-06T05:57:33;18.60;99.90
2158;DHT22;41972;48.774;9.282;2022-08-06T06:00:05;18.60;99.90
2158;DHT22;41972;48.774;9.282;2022-08-06T06:02:38;18.60;99.90
2158;DHT22;41972;48.774;9.282;2022-08-06T06:05:06;19.00;99.90
2158;DHT22;41972;48.774;9.282;2022-08-06T06:07:32;19.50;99.90
2158;DHT22;41972;48.774;9.282;2022-08-06T06:09:58;20.30;99.90
2158;DHT22;41972;48.774;9.282;2022-08-06T06:12:24;19.40;99.90
2158;DHT22;41972;48.774;9.282;2022-08-06T06:14:51;19.60;99.90
2158;DHT22;41972;48.774;9.282;2022-08-06T06:25:37;19.20;99.90
2158;DHT22;41972;48.774;9.282;2022-08-06T06:28:13;19.70;99.90
2158;DHT22;41972;48.774;9.282;2022-08-06T06:30:44;19.80;99.90
2158;DHT22;41972;48.774;9.282;2022-08-06T06:36:03;20.40;99.90
2158;DHT22;41972;48.774;9.282;2022-08-06T06:39:06;20.50;99.90
2158;DHT22;41972;48.774;9.282;2022-08-06T06:41:35;20.30;99.90
2158;DHT22;41972;48.774;9.282;2022-08-06T06:44:21;20.70;99.90
2158;DHT22;41972;48.774;9.282;2022-08-06T06:47:00;20.50;99.90
2158;DHT22;41972;48.774;9.282;2022-08-06T06:49:40;20.40;99.90
2158;DHT22;41972;48.774;9.282;2022-08-06T06:52:15;20.20;99.90
2158;DHT22;41972;48.774;9.282;2022-08-06T06:54:44;20.10;99.90
2158;DHT22;41972;48.774;9.282;2022-08-06T06:57:14;20.60;99.90
2158;DHT22;41972;48.774;9.282;2022-08-06T06:59:44;20.60;99.90
2158;DHT22;41972;48.774;9.282;2022-08-06T07:02:24;21.20;99.90
2158;DHT22;41972;48.774;9.282;2022-08-06T07:04:52;20.90;99.90
2158;DHT22;41972;48.774;9.282;2022-08-06T07:07:19;21.10;99.90
2158;DHT22;41972;48.774;9.282;2022-08-06T07:09:46;21.90;99.90
2158;DHT22;41972;48.774;9.282;2022-08-06T07:12:14;21.80;99.90
2158;DHT22;41972;48.774;9.282;2022-08-06T07:14:42;22.40;99.90
2158;DHT22;41972;48.774;9.282;2022-08-06T07:17:08;22.30;99.90
2158;DHT22;41972;48.774;9.282;2022-08-06T07:19:35;21.70;99.90
2158;DHT22;41972;48.774;9.282;2022-08-06T07:22:02;21.10;99.90
2158;DHT22;41972;48.774;9.282;2022-08-06T07:24:29;21.30;99.90
2158;DHT22;41972;48.774;9.282;2022-08-06T07:26:57;21.00;99.90
2158;DHT22;41972;48.774;9.282;2022-08-06T07:29:25;20.70;99.90
2158;DHT22;41972;48.774;9.282;2022-08-06T07:31:52;22.20;99.90
2158;DHT22;41972;48.774;9.282;2022-08-06T07:34:20;22.20;99.90
2158;DHT22;41972;48.774;9.282;2022-08-06T07:36:50;22.50;99.90
2158;DHT22;41972;48.774;9.282;2022-08-06T07:39:23;23.50;99.90
2158;DHT22;41972;48.774;9.282;2022-08-06T07:41:51;21.30;99.90
2158;DHT22;41972;48.774;9.282;2022-08-06T07:44:20;20.30;99.90
2158;DHT22;41972;48.774;9.282;2022-08-06T07:46:47;20.40;99.90
2158;DHT22;41972;48.774;9.282;2022-08-06T07:49:19;20.40;99.90
2158;DHT22;41972;48.774;9.282;2022-08-06T07:51:46;20.60;99.90
2158;DHT22;41972;48.774;9.282;2022-08-06T07:54:14;20.40;99.90
2158;DHT22;41972;48.774;9.282;2022-08-06T07:56:42;20.50;99.90
2158;DHT22;41972;48.774;9.282;2022-08-06T07:59:08;21.10;99.90
2158;DHT22;41972;48.774;9.282;2022-08-06T08:01:35;22.00;99.90
2158;DHT22;41972;48.774;9.282;2022-08-06T08:04:03;23.10;99.90
2158;DHT22;41972;48.774;9.282;2022-08-06T08:06:50;22.60;99.90
2158;DHT22;41972;48.774;9.282;2022-08-06T08:09:18;22.90;99.90
2158;DHT22;41972;48.774;9.282;2022-08-06T08:11:48;24.40;95.50
2158;DHT22;41972;48.774;9.282;2022-08-06T08:14:18;24.70;92.50
2158;DHT22;41972;48.774;9.282;2022-08-06T08:16:44;24.40;91.20
2158;DHT22;41972;48.774;9.282;2022-08-06T08:19:30;23.00;92.90
2158;DHT22;41972;48.774;9.282;2022-08-06T08:22:16;22.50;99.90
2158;DHT22;41972;48.774;9.282;2022-08-06T08:24:43;21.60;99.90
2158;DHT22;41972;48.774;9.282;2022-08-06T08:27:10;21.20;99.90
2158;DHT22;41972;48.774;9.282;2022-08-06T08:29:37;20.10;99.90
2158;DHT22;41972;48.774;9.282;2022-08-06T08:32:03;20.90;99.90
2158;DHT22;41972;48.774;9.282;2022-08-06T08:34:29;21.30;99.90
2158;DHT22;41972;48.774;9.282;2022-08-06T08:36:56;20.70;99.90
2158;DHT22;41972;48.774;9.282;2022-08-06T08:39:21;19.80;99.90
2158;DHT22;41972;48.774;9.282;2022-08-06T08:41:50;19.70;99.90
2158;DHT22;41972;48.774;9.282;2022-08-06T08:44:25;19.60;99.90
2158;DHT22;41972;48.774;9.282;2022-08-06T08:46:56;19.70;99.90
2158;DHT22;41972;48.774;9.282;2022-08-06T08:49:36;20.10;99.90
2158;DHT22;41972;48.774;9.282;2022-08-06T08:52:03;22.20;99.90
2158;DHT22;41972;48.774;9.282;2022-08-06T08:54:33;25.00;99.90
2158;DHT22;41972;48.774;9.282;2022-08-06T08:56:59;23.60;99.90
2158;DHT22;41972;48.774;9.282;2022-08-06T08:59:25;21.50;98.80
2158;DHT22;41972;48.774;9.282;2022-08-06T09:01:51;22.70;99.90
2158;DHT22;41972;48.774;9.282;2022-08-06T09:04:17;24.00;99.90
2158;DHT22;41972;48.774;9.282;2022-08-06T09:06:43;24.40;99.90
2158;DHT22;41972;48.774;9.282;2022-08-06T09:09:09;24.60;99.90
2158;DHT22;41972;48.774;9.282;2022-08-06T09:11:35;24.80;99.90
2158;DHT22;41972;48.774;9.282;2022-08-06T09:14:03;27.70;55.40
2158;DHT22;41972;48.774;9.282;2022-08-06T09:16:31;26.10;44.30
2158;DHT22;41972;48.774;9.282;2022-08-06T09:18:57;28.10;51.40
2158;DHT22;41972;48.774;9.282;2022-08-06T09:21:24;27.00;36.70
2158;DHT22;41972;48.774;9.282;2022-08-06T09:23:49;23.20;57.80
2158;DHT22;41972;48.774;9.282;2022-08-06T09:26:15;22.70;66.50
2158;DHT22;41972;48.774;9.282;2022-08-06T09:28:43;23.00;69.70
2158;DHT22;41972;48.774;9.282;2022-08-06T09:31:16;23.40;62.40
2158;DHT22;41972;48.774;9.282;2022-08-06T09:33:56;24.90;59.00
2158;DHT22;41972;48.774;9.282;2022-08-06T09:36:22;26.60;48.40
2158;DHT22;41972;48.774;9.282;2022-08-06T09:38:50;23.90;46.90
2158;DHT22;41972;48.774;9.282;2022-08-06T09:41:18;23.90;48.60
2158;DHT22;41972;48.774;9.282;2022-08-06T09:43:45;24.00;52.20
2158;DHT22;41972;48.774;9.282;2022-08-06T09:46:13;23.60;52.70
2158;DHT22;41972;48.774;9.282;2022-08-06T09:48:56;21.70;58.40
2158;DHT22;41972;48.774;9.282;2022-08-06T09:51:23;21.50;78.90
2158;DHT22;41972;48.774;9.282;2022-08-06T09:53:57;22.40;73.30
2158;DHT22;41972;48.774;9.282;2022-08-06T09:56:24;22.50;69.70
2158;DHT22;41972;48.774;9.282;2022-08-06T09:58:50;23.10;71.00
2158;DHT22;41972;48.774;9.282;2022-08-06T10:01:18;24.90;53.60
2158;DHT22;41972;48.774;9.282;2022-08-06T10:03:44;26.80;47.00
2158;DHT22;41972;48.774;9.282;2022-08-06T10:06:16;28.50;27.80
2158;DHT22;41972;48.774;9.282;2022-08-06T10:08:47;26.30;28.20
2158;DHT22;41972;48.774;9.282;2022-08-06T10:11:13;24.50;30.90
2158;DHT22;41972;48.774;9.282;2022-08-06T10:13:39;22.90;47.60
2158;DHT22;41972;48.774;9.282;2022-08-06T10:18:43;23.90;49.50
2158;DHT22;41972;48.774;9.282;2022-08-06T10:21:11;23.10;51.70
2158;DHT22;41972;48.774;9.282;2022-08-06T10:23:40;22.60;56.20
2158;DHT22;41972;48.774;9.282;2022-08-06T10:26:08;21.80;59.30
2158;DHT22;41972;48.774;9.282;2022-08-06T10:28:36;21.60;69.30
2158;DHT22;41972;48.774;9.282;2022-08-06T10:31:05;22.10;71.40
2158;DHT22;41972;48.774;9.282;2022-08-06T10:33:50;23.00;67.20
2158;DHT22;41972;48.774;9.282;2022-08-06T10:36:20;25.30;50.00
2158;DHT22;41972;48.774;9.282;2022-08-06T10:38:50;27.50;43.40
2158;DHT22;41972;48.774;9.282;2022-08-06T10:41:16;30.10;19.50
2158;DHT22;41972;48.774;9.282;2022-08-06T10:43:42;29.00;9.40
2158;DHT22;41972;48.774;9.282;2022-08-06T10:46:10;26.90;12.50
2158;DHT22;41972;48.774;9.282;2022-08-06T10:48:39;25.80;16.90
2158;DHT22;41972;48.774;9.282;2022-08-06T10:51:07;24.90;21.20
2158;DHT22;41972;48.774;9.282;2022-08-06T10:53:37;24.50;23.00
2158;DHT22;41972;48.774;9.282;2022-08-06T10:56:04;22.90;27.10
2158;DHT22;41972;48.774;9.282;2022-08-06T10:58:32;23.00;41.70
2158;DHT22;41972;48.774;9.282;2022-08-06T11:01:00;22.30;40.60
2158;DHT22;41972;48.774;9.282;2022-08-06T11:03:43;22.40;45.20
2158;DHT22;41972;48.774;9.282;2022-08-06T11:06:47;23.00;47.50
2158;DHT22;41972;48.774;9.282;2022-08-06T11:12:39;22.70;47.50
2158;DHT22;41972;48.774;9.282;2022-08-06T11:15:06;22.40;51.10
2158;DHT22;41972;48.774;9.282;2022-08-06T11:17:51;23.10;55.10
2158;DHT22;41972;48.774;9.282;2022-08-06T11:25:42;25.00;38.00
2158;DHT22;41972;48.774;9.282;2022-08-06T11:28:09;24.70;35.40
2158;DHT22;41972;48.774;9.282;2022-08-06T11:30:46;24.70;31.40
2158;DHT22;41972;48.774;9.282;2022-08-06T11:33:20;24.20;35.10
2158;DHT22;41972;48.774;9.282;2022-08-06T11:35:50;23.90;35.70
2158;DHT22;41972;48.774;9.282;2022-08-06T11:41:29;23.10;33.80
2158;DHT22;41972;48.774;9.282;2022-08-06T11:46:35;23.20;41.50
2158;DHT22;41972;48.774;9.282;2022-08-06T11:51:50;24.40;35.60
2158;DHT22;41972;48.774;9.282;2022-08-06T11:54:19;24.10;37.40
2158;DHT22;41972;48.774;9.282;2022-08-06T11:59:45;25.00;29.70
2158;DHT22;41972;48.774;9.282;2022-08-06T12:02:15;24.30;32.60
2158;DHT22;41972;48.774;9.282;2022-08-06T12:04:42;23.70;35.50
2158;DHT22;41972;48.774;9.282;2022-08-06T12:07:19;23.70;32.30
2158;DHT22;41972;48.774;9.282;2022-08-06T12:12:38;24.70;32.80
2158;DHT22;41972;48.774;9.282;2022-08-06T12:17:42;22.90;36.60
2158;DHT22;41972;48.774;9.282;2022-08-06T12:22:57;23.40;38.00
2158;DHT22;41972;48.774;9.282;2022-08-06T12:25:33;23.90;37.90
2158;DHT22;41972;48.774;9.282;2022-08-06T12:27:59;24.10;34.30
2158;DHT22;41972;48.774;9.282;2022-08-06T12:30:25;24.40;34.50
2158;DHT22;41972;48.774;9.282;2022-08-06T12:32:59;23.40;32.40
2158;DHT22;41972;48.774;9.282;2022-08-06T12:35:25;23.50;36.90
2158;DHT22;41972;48.774;9.282;2022-08-06T12:37:51;23.20;36.40
2158;DHT22;41972;48.774;9.282;2022-08-06T12:40:19;22.60;36.20
2158;DHT22;41972;48.774;9.282;2022-08-06T12:45:30;22.90;42.30
2158;DHT22;41972;48.774;9.282;2022-08-06T12:48:08;23.50;37.40
2158;DHT22;41972;48.774;9.282;2022-08-06T12:50:38;23.00;35.40
2158;DHT22;41972;48.774;9.282;2022-08-06T12:53:15;22.60;39.60
2158;DHT22;41972;48.774;9.282;2022-08-06T12:55:48;22.80;39.80
2158;DHT22;41972;48.774;9.282;2022-08-06T12:58:19;22.90;38.30
2158;DHT22;41972;48.774;9.282;2022-08-06T13:00:57;23.20;40.40
2158;DHT22;41972;48.774;9.282;2022-08-06T13:03:24;23.10;42.00
2158;DHT22;41972;48.774;9.282;2022-08-06T13:05:57;23.70;42.20
2158;DHT22;41972;48.774;9.282;2022-08-06T13:08:24;24.10;40.20
2158;DHT22;41972;48.774;9.282;2022-08-06T13:10:51;24.70;38.60
2158;DHT22;41972;48.774;9.282;2022-08-06T13:13:17;24.70;33.70
2158;DHT22;41972;48.774;9.282;2022-08-06T13:15:59;24.40;32.10
2158;DHT22;41972;48.774;9.282;2022-08-06T13:18:26;23.70;29.00
2158;DHT22;41972;48.774;9.282;2022-08-06T13:20:52;24.30;29.70
2158;DHT22;41972;48.774;9.282;2022-08-06T13:23:29;24.10;27.00
2158;DHT22;41972;48.774;9.282;2022-08-06T13:25:55;23.20;28.20
2158;DHT22;41972;48.774;9.282;2022-08-06T13:28:23;23.30;29.10
2158;DHT22;41972;48.774;9.282;2022-08-06T13:30:49;23.60;32.20
2158;DHT22;41972;48.774;9.282;2022-08-06T13:33:20;23.70;29.70
2158;DHT22;41972;48.774;9.282;2022-08-06T13:35:49;23.60;29.60
2158;DHT22;41972;48.774;9.282;2022-08-06T13:38:32;23.50;28.70
2158;DHT22;41972;48.774;9.282;2022-08-06T13:40:58;23.50;28.90
2158;DHT22;41972;48.774;9.282;2022-08-06T13:43:41;23.60;28.00
2158;DHT22;41972;48.774;9.282;2022-08-06T13:46:16;23.50;28.50
2158;DHT22;41972;48.774;9.282;2022-08-06T13:48:47;23.30;29.50
2158;DHT22;41972;48.774;9.282;2022-08-06T13:51:14;23.40;30.00
2158;DHT22;41972;48.774;9.282;2022-08-06T13:53:39;23.70;28.40
2158;DHT22;41972;48.774;9.282;2022-08-06T13:56:05;24.20;30.60
2158;DHT22;41972;48.774;9.282;2022-08-06T13:58:31;24.20;30.50
2158;DHT22;41972;48.774;9.282;2022-08-06T14:00:57;24.10;26.50
2158;DHT22;41972;48.774;9.282;2022-08-06T14:03:23;24.40;26.00
2158;DHT22;41972;48.774;9.282;2022-08-06T14:05:50;24.30;24.60
2158;DHT22;41972;48.774;9.282;2022-08-06T14:08:16;23.80;24.80
2158;DHT22;41972;48.774;9.282;2022-08-06T14:10:41;23.60;26.30
2158;DHT22;41972;48.774;9.282;2022-08-06T14:13:07;23.50;26.30
2158;DHT22;41972;48.774;9.282;2022-08-06T14:15:46;23.60;26.80
2158;DHT22;41972;48.774;9.282;2022-08-06T14:18:16;23.70;25.00
2158;DHT22;41972;48.774;9.282;2022-08-06T14:20:42;23.90;25.60
2158;DHT22;41972;48.774;9.282;2022-08-06T14:23:09;23.90;23.70
2158;DHT22;41972;48.774;9.282;2022-08-06T14:25:35;23.60;24.90
2158;DHT22;41972;48.774;9.282;2022-08-06T14:28:02;23.80;26.00
2158;DHT22;41972;48.774;9.282;2022-08-06T14:30:28;23.70;23.30
2158;DHT22;41972;48.774;9.282;2022-08-06T14:32:54;23.60;24.80
2158;DHT22;41972;48.774;9.282;2022-08-06T14:35:20;24.00;24.10
2158;DHT22;41972;48.774;9.282;2022-08-06T14:37:46;24.20;23.40
2158;DHT22;41972;48.774;9.282;2022-08-06T14:40:13;24.20;22.40
2158;DHT22;41972;48.774;9.282;2022-08-06T14:42:39;24.40;21.80
2158;DHT22;41972;48.774;9.282;2022-08-06T14:45:23;24.50;19.80
2158;DHT22;41972;48.774;9.282;2022-08-06T14:47:49;24.70;21.80
2158;DHT22;41972;48.774;9.282;2022-08-06T14:50:15;24.50;19.80
2158;DHT22;41972;48.774;9.282;2022-08-06T14:52:43;24.30;19.40
2158;DHT22;41972;48.774;9.282;2022-08-06T14:55:09;24.30;20.30
2158;DHT22;41972;48.774;9.282;2022-08-06T14:57:36;24.30;17.70
2158;DHT22;41972;48.774;9.282;2022-08-06T15:00:06;24.30;19.20
2158;DHT22;41972;48.774;9.282;2022-08-06T15:02:32;24.20;20.00
2158;DHT22;41972;48.774;9.282;2022-08-06T15:04:58;24.30;18.70
2158;DHT22;41972;48.774;9.282;2022-08-06T15:07:24;24.20;18.40
2158;DHT22;41972;48.774;9.282;2022-08-06T15:09:49;24.20;18.10
2158;DHT22;41972;48.774;9.282;2022-08-06T15:12:16;24.50;17.90
2158;DHT22;41972;48.774;9.282;2022-08-06T15:14:41;24.30;18.30
2158;DHT22;41972;48.774;9.282;2022-08-06T15:17:07;24.40;17.70
2158;DHT22;41972;48.774;9.282;2022-08-06T15:19:33;24.20;19.90
2158;DHT22;41972;48.774;9.282;2022-08-06T15:21:58;24.60;19.30
2158;DHT22;41972;48.774;9.282;2022-08-06T15:24:24;24.50;18.00
2158;DHT22;41972;48.774;9.282;2022-08-06T15:26:52;24.70;20.60
2158;DHT22;41972;48.774;9.282;2022-08-06T15:29:20;25.00;20.10
2158;DHT22;41972;48.774;9.282;2022-08-06T15:31:46;24.90;18.40
2158;DHT22;41972;48.774;9.282;2022-08-06T15:34:12;24.70;16.10
2158;DHT22;41972;48.774;9.282;2022-08-06T15:36:38;24.70;15.60
2158;DHT22;41972;48.774;9.282;2022-08-06T15:39:04;24.30;14.00
2158;DHT22;41972;48.774;9.282;2022-08-06T15:41:29;24.40;14.90
2158;DHT22;41972;48.774;9.282;2022-08-06T15:43:57;24.60;14.20
2158;DHT22;41972;48.774;9.282;2022-08-06T15:46:22;24.90;14.10
2158;DHT22;41972;48.774;9.282;2022-08-06T15:48:48;24.70;11.90
2158;DHT22;41972;48.774;9.282;2022-08-06T15:51:14;24.50;13.20
2158;DHT22;41972;48.774;9.282;2022-08-06T15:53:39;24.50;14.10
2158;DHT22;41972;48.774;9.282;2022-08-06T15:56:05;24.40;14.80
2158;DHT22;41972;48.774;9.282;2022-08-06T15:58:31;24.50;13.90
2158;DHT22;41972;48.774;9.282;2022-08-06T16:00:56;24.70;15.20
2158;DHT22;41972;48.774;9.282;2022-08-06T16:03:22;24.90;16.90
2158;DHT22;41972;48.774;9.282;2022-08-06T16:05:47;25.50;17.80
2158;DHT22;41972;48.774;9.282;2022-08-06T16:08:13;25.40;14.90
2158;DHT22;41972;48.774;9.282;2022-08-06T16:10:44;25.70;15.00
2158;DHT22;41972;48.774;9.282;2022-08-06T16:13:11;25.70;14.00
2158;DHT22;41972;48.774;9.282;2022-08-06T16:15:42;25.40;15.60
2158;DHT22;41972;48.774;9.282;2022-08-06T16:18:07;25.50;14.10
2158;DHT22;41972;48.774;9.282;2022-08-06T16:20:33;25.30;11.30
2158;DHT22;41972;48.774;9.282;2022-08-06T16:22:59;24.70;11.20
2158;DHT22;41972;48.774;9.282;2022-08-06T16:25:24;24.80;11.40
2158;DHT22;41972;48.774;9.282;2022-08-06T16:27:50;25.00;11.70
2158;DHT22;41972;48.774;9.282;2022-08-06T16:30:15;25.20;11.00
2158;DHT22;41972;48.774;9.282;2022-08-06T16:32:41;25.50;12.40
2158;DHT22;41972;48.774;9.282;2022-08-06T16:35:07;25.60;9.70
2158;DHT22;41972;48.774;9.282;2022-08-06T16:37:33;24.80;8.60
2158;DHT22;41972;48.774;9.282;2022-08-06T16:39:58;25.00;10.80
2158;DHT22;41972;48.774;9.282;2022-08-06T16:42:24;24.80;13.50
2158;DHT22;41972;48.774;9.282;2022-08-06T16:44:49;24.60;14.90
2158;DHT22;41972;48.774;9.282;2022-08-06T16:47:15;24.60;13.70
2158;DHT22;41972;48.774;9.282;2022-08-06T16:49:40;24.70;14.70
2158;DHT22;41972;48.774;9.282;2022-08-06T16:52:06;24.70;14.00
2158;DHT22;41972;48.774;9.282;2022-08-06T16:54:31;24.70;12.30
2158;DHT22;41972;48.774;9.282;2022-08-06T16:56:57;24.80;10.10
2158;DHT22;41972;48.774;9.282;2022-08-06T16:59:22;25.10;8.20
2158;DHT22;41972;48.774;9.282;2022-08-06T17:01:48;24.80;7.90
2158;DHT22;41972;48.774;9.282;2022-08-06T17:04:33;24.70;8.00
2158;DHT22;41972;48.774;9.282;2022-08-06T17:06:59;24.50;9.40